Time;durP1;ratioP1;P1;durP2;ratioP2;P2;SDS_P1;SDS_P2;PMS_P1;PMS_P2;Temp;Humidity;BMP_temperature;BMP_pressure;BME280_temperature;BME280_humidity;BME280_pressure;Samples;Min_cycle;Max_cycle;Signal;HPM_P1;HPM_P2
2023/12/04 00:01:47;;;;;;;13.23;5.40;;;1.70;99.90;;;;;;6181495;23;20096;-77
2023/12/04 00:04:13;;;;;;;15.10;5.65;;;1.70;99.90;;;;;;6180898;23;20020;-77
2023/12/04 00:06:39;;;;;;;11.88;5.35;;;1.70;99.90;;;;;;6180896;23;20020;-78
2023/12/04 00:09:04;;;;;;;13.30;4.65;;;1.70;99.90;;;;;;6180125;23;20028;-78
2023/12/04 00:11:30;;;;;;;15.70;5.25;;;1.70;99.90;;;;;;6180807;23;20335;-79
2023/12/04 00:13:56;;;;;;;15.05;5.75;;;1.70;99.90;;;;;;6178418;23;20017;-75
2023/12/04 00:16:21;;;;;;;15.30;5.78;;;1.80;99.90;;;;;;6182910;23;20009;-77
2023/12/04 00:18:47;;;;;;;13.25;4.90;;;1.80;99.90;;;;;;6178745;23;20378;-76
2023/12/04 00:21:13;;;;;;;17.63;6.00;;;1.80;99.90;;;;;;6179353;23;20044;-77
2023/12/04 00:23:38;;;;;;;11.23;4.35;;;1.80;99.90;;;;;;6178965;23;20017;-77
2023/12/04 00:26:04;;;;;;;14.82;5.82;;;1.80;99.90;;;;;;6181184;23;20304;-78
2023/12/04 00:28:31;;;;;;;14.43;4.47;;;1.80;99.90;;;;;;6179712;23;20009;-77
2023/12/04 00:30:57;;;;;;;17.58;5.47;;;1.70;99.90;;;;;;6180707;23;20488;-79
2023/12/04 00:33:22;;;;;;;10.25;5.07;;;1.70;99.90;;;;;;6183329;23;20037;-78
2023/12/04 00:35:48;;;;;;;11.25;4.88;;;1.70;99.90;;;;;;6180352;23;20031;-78
2023/12/04 00:38:13;;;;;;;15.05;5.47;;;1.70;99.90;;;;;;6184875;23;20012;-79
2023/12/04 00:40:39;;;;;;;12.55;4.53;;;1.70;99.90;;;;;;6185108;23;20009;-80
2023/12/04 00:43:04;;;;;;;12.18;4.38;;;1.70;99.90;;;;;;6184855;23;20004;-77
2023/12/04 00:45:30;;;;;;;11.63;4.65;;;1.70;99.90;;;;;;6180202;23;20451;-78
2023/12/04 00:47:55;;;;;;;13.52;5.72;;;1.70;99.90;;;;;;6178732;23;20382;-79
2023/12/04 00:50:21;;;;;;;13.02;4.88;;;1.70;99.90;;;;;;6181691;23;20016;-77
2023/12/04 00:52:47;;;;;;;12.65;5.43;;;1.70;99.90;;;;;;6179067;23;20093;-75
2023/12/04 00:55:12;;;;;;;11.27;5.05;;;1.70;99.90;;;;;;6180276;23;20013;-79
2023/12/04 00:57:38;;;;;;;15.05;5.10;;;1.70;99.90;;;;;;6182362;23;20455;-77
2023/12/04 01:00:04;;;;;;;16.02;5.07;;;1.70;99.90;;;;;;6180960;23;20009;-77
2023/12/04 01:02:30;;;;;;;15.48;4.85;;;1.70;99.90;;;;;;6181913;23;20046;-82
2023/12/04 01:04:55;;;;;;;11.45;5.32;;;1.70;99.90;;;;;;6179405;23;20019;-78
2023/12/04 01:07:21;;;;;;;12.18;4.75;;;1.80;99.90;;;;;;6181522;23;20013;-77
2023/12/04 01:09:46;;;;;;;15.02;5.15;;;1.70;99.90;;;;;;6180977;23;20028;-77
2023/12/04 01:12:12;;;;;;;12.00;5.25;;;1.70;99.90;;;;;;6183290;23;20091;-77
2023/12/04 01:14:40;;;;;;;14.75;6.18;;;1.70;99.90;;;;;;6180450;23;20083;-79
2023/12/04 01:17:06;;;;;;;17.40;5.85;;;1.70;99.90;;;;;;6179177;23;20009;-77
2023/12/04 01:19:32;;;;;;;13.20;4.85;;;1.70;99.90;;;;;;6179102;23;20092;-78
2023/12/04 01:21:57;;;;;;;14.18;6.47;;;1.70;99.90;;;;;;6178011;23;20005;-77
2023/12/04 01:24:23;;;;;;;13.57;5.18;;;1.70;99.90;;;;;;6181707;23;20017;-77
2023/12/04 01:26:48;;;;;;;13.57;5.35;;;1.70;99.90;;;;;;6179900;23;20025;-78
2023/12/04 01:29:14;;;;;;;14.80;5.88;;;1.70;99.90;;;;;;6186147;23;20009;-78
2023/12/04 01:31:40;;;;;;;14.10;5.20;;;1.70;99.90;;;;;;6184761;23;20500;-78
2023/12/04 01:34:05;;;;;;;18.08;6.13;;;1.80;99.90;;;;;;6182659;23;20016;-77
2023/12/04 01:36:31;;;;;;;12.18;5.53;;;1.70;99.90;;;;;;6181390;23;20013;-77
2023/12/04 01:38:56;;;;;;;15.23;5.82;;;1.70;99.90;;;;;;6178545;23;20009;-77
2023/12/04 01:41:22;;;;;;;12.73;5.15;;;1.80;99.90;;;;;;6183465;23;20009;-78
2023/12/04 01:43:48;;;;;;;14.50;5.75;;;1.80;99.90;;;;;;6180302;23;20108;-79
2023/12/04 01:46:17;;;;;;;15.80;6.20;;;1.70;99.90;;;;;;6179803;23;20032;-78
2023/12/04 01:48:45;;;;;;;15.18;5.72;;;1.80;99.90;;;;;;6179339;23;20009;-76
2023/12/04 01:51:12;;;;;;;15.15;5.38;;;1.80;99.90;;;;;;6178661;23;20001;-77
2023/12/04 01:53:39;;;;;;;15.95;5.78;;;1.70;99.90;;;;;;6180554;23;20089;-76
2023/12/04 01:56:06;;;;;;;11.75;4.93;;;1.70;99.90;;;;;;6181564;23;20335;-77
2023/12/04 01:58:32;;;;;;;15.02;5.85;;;1.80;99.90;;;;;;6180496;23;20020;-78
2023/12/04 02:00:58;;;;;;;13.57;5.20;;;1.80;99.90;;;;;;6177817;23;20033;-78
2023/12/04 02:03:24;;;;;;;15.50;5.35;;;1.80;99.90;;;;;;6180045;23;20079;-78
2023/12/04 02:05:51;;;;;;;14.27;6.22;;;1.80;99.90;;;;;;6176914;23;20013;-77
2023/12/04 02:08:17;;;;;;;12.48;5.10;;;1.80;99.90;;;;;;6180814;23;20458;-78
2023/12/04 02:10:43;;;;;;;14.85;5.63;;;1.80;99.90;;;;;;6177713;23;20033;-78
2023/12/04 02:13:09;;;;;;;20.88;6.47;;;1.80;99.90;;;;;;6180344;23;20024;-79
2023/12/04 02:15:35;;;;;;;16.10;5.63;;;1.80;99.90;;;;;;6178271;23;20009;-77
2023/12/04 02:18:02;;;;;;;16.23;5.75;;;1.80;99.90;;;;;;6180273;23;20005;-77
2023/12/04 02:20:35;;;;;;;11.52;4.65;;;1.80;99.90;;;;;;6183318;23;20049;-77
2023/12/04 02:23:03;;;;;;;14.13;5.78;;;1.80;99.90;;;;;;6185380;23;20013;-79
2023/12/04 02:25:30;;;;;;;13.50;4.50;;;1.90;99.90;;;;;;6182061;23;20044;-79
2023/12/04 02:27:58;;;;;;;15.32;6.18;;;1.80;99.90;;;;;;6178106;23;20032;-76
2023/12/04 02:30:25;;;;;;;12.75;5.55;;;1.80;99.90;;;;;;6182775;23;20017;-76
2023/12/04 02:32:51;;;;;;;13.73;4.85;;;1.80;99.90;;;;;;6182809;23;20439;-79
2023/12/04 02:35:22;;;;;;;11.90;4.57;;;1.90;99.90;;;;;;6185602;23;20013;-77
2023/12/04 02:37:49;;;;;;;17.85;5.72;;;1.90;99.90;;;;;;6177748;23;20013;-76
2023/12/04 02:40:15;;;;;;;13.00;5.72;;;1.90;99.90;;;;;;6181109;23;20009;-80
2023/12/04 02:42:41;;;;;;;14.52;5.10;;;1.90;99.90;;;;;;6179800;23;20020;-76
2023/12/04 02:45:07;;;;;;;13.00;5.32;;;1.90;99.90;;;;;;6177891;23;20017;-76
2023/12/04 02:47:32;;;;;;;15.20;5.38;;;1.90;99.90;;;;;;6180644;23;20459;-76
2023/12/04 02:49:58;;;;;;;11.63;4.85;;;1.90;99.90;;;;;;6179849;23;20015;-77
2023/12/04 02:52:23;;;;;;;12.95;5.25;;;1.90;99.90;;;;;;6179412;23;20036;-76
2023/12/04 02:54:49;;;;;;;15.60;6.10;;;1.90;99.90;;;;;;6176766;23;20017;-76
2023/12/04 02:57:15;;;;;;;12.75;4.88;;;1.90;99.90;;;;;;6177861;23;20128;-77
2023/12/04 02:59:41;;;;;;;11.48;4.88;;;1.90;99.90;;;;;;6177798;23;20023;-78
2023/12/04 03:02:06;;;;;;;11.73;4.60;;;1.80;99.90;;;;;;6180172;23;20009;-78
2023/12/04 03:04:33;;;;;;;14.52;5.57;;;1.90;99.90;;;;;;6179673;23;20013;-78
2023/12/04 03:06:58;;;;;;;14.43;5.95;;;1.80;99.90;;;;;;6176605;23;20012;-78
2023/12/04 03:09:24;;;;;;;13.40;5.05;;;1.90;99.90;;;;;;6178973;23;20032;-77
2023/12/04 03:11:49;;;;;;;12.52;5.28;;;1.80;99.90;;;;;;6185305;23;20031;-79
2023/12/04 03:14:15;;;;;;;13.52;5.88;;;1.80;99.90;;;;;;6184236;23;20009;-78
2023/12/04 03:16:40;;;;;;;12.75;5.20;;;1.80;99.90;;;;;;6181192;23;20013;-76
2023/12/04 03:19:06;;;;;;;13.25;5.22;;;1.80;99.90;;;;;;6181925;23;20036;-79
2023/12/04 03:21:32;;;;;;;18.02;5.65;;;1.80;99.90;;;;;;6182025;23;20017;-78
2023/12/04 03:23:57;;;;;;;12.20;5.68;;;1.80;99.90;;;;;;6181270;23;20331;-76
2023/12/04 03:26:23;;;;;;;14.80;5.25;;;1.80;99.90;;;;;;6179623;23;20013;-77
2023/12/04 03:28:48;;;;;;;16.15;5.57;;;1.80;99.90;;;;;;6179891;23;20017;-78
2023/12/04 03:31:14;;;;;;;13.50;5.82;;;1.80;99.90;;;;;;6179148;23;20017;-78
2023/12/04 03:33:39;;;;;;;14.82;5.57;;;1.80;99.90;;;;;;6180003;23;20092;-76
2023/12/04 03:36:06;;;;;;;13.82;5.05;;;1.80;99.90;;;;;;6178558;23;20006;-77
2023/12/04 03:38:31;;;;;;;12.77;5.30;;;1.80;99.90;;;;;;6178698;23;20005;-77
2023/12/04 03:40:57;;;;;;;14.05;4.95;;;1.70;99.90;;;;;;6179785;23;20401;-78
2023/12/04 03:43:22;;;;;;;14.52;4.88;;;1.80;99.90;;;;;;6181857;23;20021;-76
2023/12/04 03:45:48;;;;;;;13.85;5.63;;;1.70;99.90;;;;;;6176338;23;20391;-77
2023/12/04 03:48:14;;;;;;;13.40;5.10;;;1.80;99.90;;;;;;6177819;23;20001;-76
2023/12/04 03:50:39;;;;;;;12.05;4.53;;;1.70;99.90;;;;;;6178864;23;20700;-77
2023/12/04 03:53:05;;;;;;;14.40;4.88;;;1.80;99.90;;;;;;6177405;23;20005;-77
2023/12/04 03:55:30;;;;;;;11.98;4.88;;;1.80;99.90;;;;;;6177036;23;20021;-77
2023/12/04 03:57:57;;;;;;;11.90;5.03;;;1.70;99.90;;;;;;6176705;23;20325;-78
2023/12/04 04:00:23;;;;;;;12.73;4.70;;;1.70;99.90;;;;;;6180715;23;20051;-77
2023/12/04 04:02:49;;;;;;;14.40;5.55;;;1.70;99.90;;;;;;6180559;23;20020;-77
2023/12/04 04:05:15;;;;;;;14.73;5.13;;;1.70;99.90;;;;;;6183767;23;20051;-76
2023/12/04 04:07:41;;;;;;;10.15;4.47;;;1.70;99.90;;;;;;6179753;23;20016;-79
2023/12/04 04:10:07;;;;;;;11.70;5.05;;;1.70;99.90;;;;;;6179980;23;20655;-76
2023/12/04 04:12:33;;;;;;;18.77;6.18;;;1.70;99.90;;;;;;6179339;23;20009;-77
2023/12/04 04:14:59;;;;;;;13.48;4.43;;;1.80;99.90;;;;;;6177600;23;20012;-77
2023/12/04 04:17:25;;;;;;;12.63;4.95;;;1.70;99.90;;;;;;6176708;23;20447;-77
2023/12/04 04:19:52;;;;;;;13.55;5.22;;;1.80;99.90;;;;;;6175935;23;20063;-77
2023/12/04 04:22:18;;;;;;;12.60;5.07;;;1.80;99.90;;;;;;6179138;23;20001;-77
2023/12/04 04:24:44;;;;;;;10.27;4.05;;;1.80;99.90;;;;;;6177637;23;20009;-78
2023/12/04 04:27:09;;;;;;;10.57;5.00;;;1.80;99.90;;;;;;6179782;23;20016;-78
2023/12/04 04:29:35;;;;;;;12.25;4.68;;;1.80;99.90;;;;;;6177357;23;20017;-77
2023/12/04 04:32:00;;;;;;;11.45;4.40;;;1.80;99.90;;;;;;6178750;23;20009;-76
2023/12/04 04:34:26;;;;;;;12.80;4.93;;;1.80;99.90;;;;;;6180522;23;20009;-79
2023/12/04 04:36:51;;;;;;;11.70;5.00;;;1.90;99.90;;;;;;6178388;23;20345;-77
2023/12/04 04:39:17;;;;;;;11.23;4.30;;;1.90;99.90;;;;;;6180245;23;20005;-76
2023/12/04 04:41:44;;;;;;;14.07;5.05;;;1.90;99.90;;;;;;6176285;23;20069;-76
2023/12/04 04:44:09;;;;;;;11.63;4.60;;;1.90;99.90;;;;;;6131461;23;1075292;-77
2023/12/04 04:46:35;;;;;;;11.38;4.63;;;1.90;99.90;;;;;;6181185;23;20020;-77
2023/12/04 04:49:01;;;;;;;13.45;4.72;;;1.90;99.90;;;;;;6178039;23;20096;-79
2023/12/04 04:51:29;;;;;;;13.57;4.85;;;1.90;99.90;;;;;;6179558;23;20406;-79
2023/12/04 04:53:55;;;;;;;9.75;4.07;;;2.00;99.90;;;;;;6181633;23;20017;-77
2023/12/04 04:56:21;;;;;;;13.10;5.00;;;1.90;99.90;;;;;;6186201;23;20009;-77
2023/12/04 04:58:46;;;;;;;10.70;4.68;;;2.00;99.90;;;;;;6184826;23;20005;-78
2023/12/04 05:01:12;;;;;;;10.48;4.53;;;2.00;99.90;;;;;;6178935;23;20067;-76
2023/12/04 05:03:37;;;;;;;11.25;4.57;;;2.00;99.90;;;;;;6178578;23;20008;-78
2023/12/04 05:06:03;;;;;;;10.38;4.13;;;2.00;99.90;;;;;;6179407;23;20427;-77
2023/12/04 05:08:29;;;;;;;9.85;4.45;;;2.00;99.90;;;;;;6180588;23;20024;-77
2023/12/04 05:10:55;;;;;;;12.13;4.72;;;2.00;99.90;;;;;;6179074;23;20335;-75
2023/12/04 05:13:20;;;;;;;10.98;3.58;;;2.00;99.90;;;;;;6178179;23;20347;-76
2023/12/04 05:15:46;;;;;;;10.27;3.72;;;2.00;99.90;;;;;;6179035;23;20027;-77
2023/12/04 05:18:11;;;;;;;8.05;3.85;;;2.00;99.90;;;;;;6180719;23;19997;-78
2023/12/04 05:20:37;;;;;;;11.55;4.43;;;2.10;99.90;;;;;;6179101;23;20017;-79
2023/12/04 05:23:02;;;;;;;13.15;4.20;;;2.10;99.90;;;;;;6202317;23;20009;-77
2023/12/04 05:25:28;;;;;;;12.10;3.78;;;2.00;99.90;;;;;;6178248;23;20013;-77
2023/12/04 05:27:53;;;;;;;9.57;3.90;;;2.00;99.90;;;;;;6178642;23;20009;-77
2023/12/04 05:30:19;;;;;;;11.73;4.85;;;2.00;99.90;;;;;;6179507;23;20016;-77
2023/12/04 05:32:45;;;;;;;10.13;4.38;;;2.00;99.90;;;;;;6178738;23;20016;-79
2023/12/04 05:35:10;;;;;;;9.98;4.50;;;1.90;99.90;;;;;;6179656;23;20027;-77
2023/12/04 05:37:36;;;;;;;8.75;3.90;;;2.00;99.90;;;;;;6177653;23;20083;-79
2023/12/04 05:40:03;;;;;;;11.43;4.32;;;2.00;99.90;;;;;;6178763;23;20506;-77
2023/12/04 05:42:28;;;;;;;9.90;3.88;;;2.00;99.90;;;;;;6178014;23;20021;-77
2023/12/04 05:44:55;;;;;;;9.13;4.65;;;2.00;99.90;;;;;;6177819;23;20020;-77
2023/12/04 05:47:21;;;;;;;14.07;5.22;;;2.00;99.90;;;;;;6183724;23;20009;-76
2023/12/04 05:49:46;;;;;;;12.43;4.40;;;2.00;99.90;;;;;;6176567;23;20108;-78
2023/12/04 05:52:12;;;;;;;8.80;4.05;;;2.00;99.90;;;;;;6177247;23;20032;-76
2023/12/04 05:54:38;;;;;;;9.10;4.18;;;2.00;99.90;;;;;;6175872;23;20005;-78
2023/12/04 05:57:04;;;;;;;14.20;5.72;;;2.00;99.90;;;;;;6173721;23;20031;-76
2023/12/04 05:59:29;;;;;;;9.98;3.97;;;2.00;99.90;;;;;;6175095;23;20348;-76
2023/12/04 06:01:55;;;;;;;10.13;3.78;;;2.00;99.90;;;;;;6174225;23;20040;-76
2023/12/04 06:04:20;;;;;;;13.13;4.03;;;2.00;99.90;;;;;;6177202;23;20024;-77
2023/12/04 06:06:46;;;;;;;12.00;4.53;;;1.90;99.90;;;;;;6174708;23;20451;-74
2023/12/04 06:09:12;;;;;;;10.45;4.53;;;2.00;99.90;;;;;;6173554;23;20005;-78
2023/12/04 06:11:37;;;;;;;11.30;3.80;;;1.90;99.90;;;;;;6175085;23;20087;-78
2023/12/04 06:14:03;;;;;;;13.48;4.05;;;1.90;99.90;;;;;;6175997;23;20431;-78
2023/12/04 06:16:29;;;;;;;13.45;4.13;;;1.90;99.90;;;;;;6176591;23;20120;-76
2023/12/04 06:18:54;;;;;;;14.18;4.32;;;1.90;99.90;;;;;;6172607;23;20017;-77
2023/12/04 06:21:20;;;;;;;12.10;5.30;;;1.90;99.90;;;;;;6174461;23;20013;-78
2023/12/04 06:23:46;;;;;;;11.05;4.10;;;1.90;99.90;;;;;;6175542;23;20017;-76
2023/12/04 06:26:12;;;;;;;10.35;4.25;;;1.90;99.90;;;;;;6174365;23;20096;-77
2023/12/04 06:28:38;;;;;;;11.68;4.70;;;2.00;99.90;;;;;;6175308;23;20032;-76
2023/12/04 06:31:04;;;;;;;8.65;3.63;;;2.00;99.90;;;;;;6174355;23;20005;-77
2023/12/04 06:33:30;;;;;;;11.45;4.43;;;2.00;99.90;;;;;;6177402;23;20087;-76
2023/12/04 06:35:56;;;;;;;12.93;4.95;;;2.00;99.90;;;;;;6177145;23;20037;-76
2023/12/04 06:38:25;;;;;;;11.65;4.47;;;2.00;99.90;;;;;;6178900;23;20015;-76
2023/12/04 06:40:50;;;;;;;11.65;4.30;;;2.00;99.90;;;;;;6179978;23;20516;-77
2023/12/04 06:43:18;;;;;;;9.77;4.43;;;2.00;99.90;;;;;;6174795;23;20001;-77
2023/12/04 06:45:45;;;;;;;9.95;4.10;;;2.00;99.90;;;;;;6174364;23;20071;-79
2023/12/04 06:48:13;;;;;;;10.15;4.00;;;2.00;99.90;;;;;;6176599;23;20017;-79
2023/12/04 06:50:39;;;;;;;12.50;4.25;;;2.00;99.90;;;;;;6176271;23;20229;-77
2023/12/04 06:53:06;;;;;;;12.55;4.32;;;2.00;99.90;;;;;;6176564;23;20036;-76
2023/12/04 06:55:31;;;;;;;9.07;3.88;;;2.00;99.90;;;;;;6176193;23;20013;-76
2023/12/04 06:57:57;;;;;;;10.23;4.28;;;1.90;99.90;;;;;;6175970;23;20489;-76
2023/12/04 07:00:22;;;;;;;11.70;4.38;;;2.00;99.90;;;;;;6178355;23;20017;-78
2023/12/04 07:02:48;;;;;;;10.43;3.67;;;1.90;99.90;;;;;;6176750;23;20021;-78
2023/12/04 07:05:14;;;;;;;9.23;4.00;;;1.90;99.90;;;;;;6177575;23;20024;-78
2023/12/04 07:07:39;;;;;;;9.93;4.57;;;1.90;99.90;;;;;;6174414;23;20009;-77
2023/12/04 07:10:05;;;;;;;10.77;4.70;;;2.00;99.90;;;;;;6174971;23;20016;-78
2023/12/04 07:12:31;;;;;;;7.32;3.45;;;2.00;99.90;;;;;;6177393;23;20193;-78
2023/12/04 07:14:56;;;;;;;10.52;4.68;;;1.90;99.90;;;;;;6175348;23;20024;-78
2023/12/04 07:17:22;;;;;;;8.10;3.85;;;2.00;99.90;;;;;;6177439;23;20025;-77
2023/12/04 07:19:48;;;;;;;8.45;3.70;;;2.00;99.90;;;;;;6174528;23;20320;-77
2023/12/04 07:22:13;;;;;;;9.50;3.88;;;2.00;99.90;;;;;;6176140;23;20083;-77
2023/12/04 07:24:39;;;;;;;9.25;3.80;;;2.00;99.90;;;;;;6177987;23;20017;-77
2023/12/04 07:27:05;;;;;;;10.52;4.15;;;2.00;99.90;;;;;;6176694;23;20020;-76
2023/12/04 07:29:30;;;;;;;8.25;3.58;;;2.00;99.90;;;;;;6182828;23;20092;-76
2023/12/04 07:31:56;;;;;;;11.40;4.47;;;2.00;99.90;;;;;;6178409;23;20045;-77
2023/12/04 07:34:21;;;;;;;7.95;4.03;;;2.00;99.90;;;;;;6176382;23;20526;-76
2023/12/04 07:36:48;;;;;;;9.38;4.50;;;2.00;99.90;;;;;;6177128;23;20063;-78
2023/12/04 07:39:14;;;;;;;9.55;3.30;;;2.00;99.90;;;;;;6178205;23;20048;-77
2023/12/04 07:41:40;;;;;;;10.05;4.63;;;2.00;99.90;;;;;;6177536;23;20017;-78
2023/12/04 07:44:06;;;;;;;8.13;3.45;;;2.00;99.90;;;;;;6178348;23;20013;-77
2023/12/04 07:46:31;;;;;;;8.70;3.63;;;2.00;99.90;;;;;;6176027;23;20021;-77
2023/12/04 07:48:57;;;;;;;10.15;4.30;;;2.00;99.90;;;;;;6174988;23;20360;-78
2023/12/04 07:51:23;;;;;;;10.27;4.07;;;2.10;99.90;;;;;;6175939;23;20440;-80
2023/12/04 07:53:49;;;;;;;5.80;3.15;;;2.10;99.90;;;;;;6174797;23;20013;-77
2023/12/04 07:56:15;;;;;;;10.25;4.95;;;2.10;99.90;;;;;;6176200;23;20040;-77
2023/12/04 07:58:40;;;;;;;7.00;3.50;;;2.10;99.90;;;;;;6174939;23;20067;-75
2023/12/04 08:01:06;;;;;;;8.60;4.28;;;2.10;99.90;;;;;;6200847;23;20020;-76
2023/12/04 08:03:32;;;;;;;12.02;3.60;;;2.00;99.90;;;;;;6177561;23;20009;-78
2023/12/04 08:06:01;;;;;;;10.27;3.75;;;2.00;99.90;;;;;;6176131;23;20059;-76
2023/12/04 08:08:26;;;;;;;9.30;3.53;;;2.00;99.90;;;;;;6177925;23;20020;-78
2023/12/04 08:10:53;;;;;;;9.85;3.45;;;2.10;99.90;;;;;;6174632;23;20021;-76
2023/12/04 08:13:18;;;;;;;7.13;3.25;;;2.10;99.90;;;;;;6178549;23;20024;-75
2023/12/04 08:15:44;;;;;;;11.43;3.10;;;2.10;99.90;;;;;;6176886;23;20719;-77
2023/12/04 08:18:09;;;;;;;6.22;2.95;;;2.10;99.90;;;;;;6178192;23;20032;-77
2023/12/04 08:20:35;;;;;;;11.48;4.25;;;2.10;99.90;;;;;;6181970;23;20036;-77
2023/12/04 08:23:01;;;;;;;8.07;3.88;;;2.20;99.90;;;;;;6178557;23;20017;-76
2023/12/04 08:25:26;;;;;;;9.00;3.00;;;2.20;99.90;;;;;;6175734;23;20083;-77
2023/12/04 08:27:52;;;;;;;7.60;3.13;;;2.20;99.90;;;;;;6176815;23;20397;-76
2023/12/04 08:30:18;;;;;;;7.47;3.50;;;2.20;99.90;;;;;;6177783;23;20009;-77
2023/12/04 08:32:44;;;;;;;6.82;2.88;;;2.20;99.90;;;;;;6174697;23;20096;-77
2023/12/04 08:35:09;;;;;;;9.35;3.22;;;2.20;99.90;;;;;;6176223;23;20013;-75
2023/12/04 08:37:35;;;;;;;7.07;2.90;;;2.20;99.90;;;;;;6177353;23;20480;-78
2023/12/04 08:40:01;;;;;;;10.02;3.47;;;2.20;99.90;;;;;;6176484;23;20025;-77
2023/12/04 08:42:26;;;;;;;6.38;3.05;;;2.20;99.90;;;;;;6174972;23;20088;-77
2023/12/04 08:44:52;;;;;;;8.63;3.35;;;2.20;99.90;;;;;;6174951;23;20025;-77
2023/12/04 08:47:17;;;;;;;8.15;3.92;;;2.20;99.90;;;;;;6179122;23;20005;-76
2023/12/04 08:49:43;;;;;;;10.15;3.55;;;2.20;99.90;;;;;;6180063;23;20020;-76
2023/12/04 08:52:09;;;;;;;7.68;2.67;;;2.20;99.90;;;;;;6181003;23;20028;-75
2023/12/04 08:54:38;;;;;;;7.80;3.35;;;2.30;99.90;;;;;;6178938;23;20096;-77
2023/12/04 08:57:04;;;;;;;11.52;3.45;;;2.20;99.90;;;;;;6176397;23;20009;-77
2023/12/04 08:59:29;;;;;;;7.97;4.22;;;2.20;99.90;;;;;;6177253;23;20040;-76
2023/12/04 09:01:55;;;;;;;5.60;2.97;;;2.30;99.90;;;;;;6176379;23;20408;-79
2023/12/04 09:04:20;;;;;;;8.00;3.13;;;2.30;99.90;;;;;;6178525;23;20015;-76
2023/12/04 09:06:46;;;;;;;6.40;2.90;;;2.30;99.90;;;;;;6176532;23;20344;-76
2023/12/04 09:09:12;;;;;;;6.63;2.85;;;2.40;99.90;;;;;;6176606;23;20100;-77
2023/12/04 09:11:43;;;;;;;5.05;2.58;;;2.40;99.90;;;;;;6181764;23;20020;-79
2023/12/04 09:14:09;;;;;;;5.60;2.63;;;2.50;99.90;;;;;;6179878;23;20008;-78
2023/12/04 09:16:35;;;;;;;6.95;3.25;;;2.50;99.90;;;;;;6177605;23;20013;-77
2023/12/04 09:19:00;;;;;;;6.88;3.33;;;2.50;99.90;;;;;;6176128;23;20052;-76
2023/12/04 09:21:26;;;;;;;5.90;2.33;;;2.50;99.90;;;;;;6178500;23;20017;-77
2023/12/04 09:23:52;;;;;;;5.47;2.60;;;2.50;99.90;;;;;;6176342;23;20387;-76
2023/12/04 09:26:18;;;;;;;7.93;2.53;;;2.60;99.90;;;;;;6176536;23;20420;-78
2023/12/04 09:28:44;;;;;;;5.70;2.45;;;2.60;99.90;;;;;;6173162;23;20071;-79
2023/12/04 09:31:09;;;;;;;8.98;2.95;;;2.60;99.90;;;;;;6174820;23;20388;-75
2023/12/04 09:33:36;;;;;;;4.93;2.50;;;2.60;99.90;;;;;;6175438;23;20012;-78
2023/12/04 09:36:02;;;;;;;5.32;2.63;;;2.60;99.90;;;;;;6173637;23;20012;-76
2023/12/04 09:38:28;;;;;;;4.72;2.45;;;2.60;99.90;;;;;;6174595;23;20086;-76
2023/12/04 09:40:58;;;;;;;7.18;3.33;;;2.60;99.90;;;;;;6175318;23;20013;-78
2023/12/04 09:43:24;;;;;;;4.38;2.22;;;2.60;99.90;;;;;;6177218;23;20617;-78
2023/12/04 09:45:50;;;;;;;5.85;2.70;;;2.60;99.90;;;;;;6174164;23;20027;-77
2023/12/04 09:48:16;;;;;;;7.88;3.63;;;2.70;99.90;;;;;;6174409;23;20005;-77
2023/12/04 09:50:42;;;;;;;6.35;2.67;;;2.70;99.90;;;;;;6175770;23;20024;-79
2023/12/04 09:53:10;;;;;;;8.82;2.88;;;2.70;99.90;;;;;;6176527;23;20016;-77
2023/12/04 09:55:36;;;;;;;8.50;2.70;;;2.70;99.90;;;;;;6177854;23;20009;-78
2023/12/04 09:58:03;;;;;;;8.02;2.83;;;2.70;99.90;;;;;;6175780;23;20089;-76
2023/12/04 10:00:32;;;;;;;8.98;3.33;;;2.80;99.90;;;;;;6176357;23;20017;-79
2023/12/04 10:02:59;;;;;;;5.85;2.72;;;2.80;99.90;;;;;;6176283;23;20041;-78
2023/12/04 10:05:25;;;;;;;7.22;2.97;;;2.80;99.90;;;;;;6177278;23;20027;-78
2023/12/04 10:07:51;;;;;;;7.00;2.70;;;2.80;99.90;;;;;;6173373;23;20009;-78
2023/12/04 10:10:18;;;;;;;6.28;2.53;;;2.90;99.90;;;;;;6175050;23;20485;-76
2023/12/04 10:12:43;;;;;;;5.35;2.38;;;2.90;99.90;;;;;;6174034;23;20013;-76
2023/12/04 10:15:11;;;;;;;6.25;3.05;;;3.00;99.90;;;;;;6175222;23;20063;-77
2023/12/04 10:17:38;;;;;;;4.72;2.92;;;2.90;99.90;;;;;;6176990;23;20017;-78
2023/12/04 10:20:17;;;;;;;6.78;2.83;;;2.90;99.90;;;;;;6174977;23;20371;-77
2023/12/04 10:23:01;;;;;;;7.60;2.85;;;2.90;99.90;;;;;;6175427;23;20033;-78
2023/12/04 10:25:29;;;;;;;6.05;2.25;;;2.90;99.90;;;;;;6176603;23;20009;-76
2023/12/04 10:28:08;;;;;;;6.82;3.15;;;3.00;99.90;;;;;;6173454;23;20466;-77
2023/12/04 10:30:33;;;;;;;5.90;2.80;;;3.00;99.90;;;;;;6175897;23;20017;-77
2023/12/04 10:33:02;;;;;;;6.15;2.60;;;3.00;99.90;;;;;;6175261;23;20023;-79
2023/12/04 10:35:36;;;;;;;6.38;3.00;;;3.00;99.90;;;;;;6174285;23;20447;-78
2023/12/04 10:38:02;;;;;;;6.70;3.03;;;3.10;99.90;;;;;;6173457;23;20112;-77
2023/12/04 10:40:33;;;;;;;5.70;2.65;;;3.10;99.90;;;;;;6174923;23;20021;-78
2023/12/04 10:43:14;;;;;;;;;;;3.10;99.90;;;;;;6176281;23;20343;-76
2023/12/04 10:45:40;;;;;;;5.25;2.42;;;3.10;99.90;;;;;;6174172;23;19927;-77
2023/12/04 10:48:07;;;;;;;7.90;3.45;;;3.10;99.90;;;;;;6174911;23;20443;-78
2023/12/04 10:50:40;;;;;;;8.05;2.65;;;3.20;99.90;;;;;;6174843;23;20021;-78
2023/12/04 10:53:07;;;;;;;5.28;2.63;;;3.20;99.90;;;;;;6175156;23;20037;-76
2023/12/04 10:55:34;;;;;;;7.10;2.72;;;3.10;99.90;;;;;;6176777;23;20013;-77
2023/12/04 10:58:07;;;;;;;6.60;2.72;;;3.20;99.90;;;;;;6173880;23;20032;-76
2023/12/04 11:00:52;;;;;;;6.30;2.60;;;3.20;99.90;;;;;;6177449;23;20017;-78
2023/12/04 11:03:31;;;;;;;6.55;2.92;;;3.20;99.90;;;;;;6173761;23;20383;-76
2023/12/04 11:06:00;;;;;;;5.38;3.00;;;3.30;99.90;;;;;;6173286;23;20013;-78
2023/12/04 11:08:32;;;;;;;6.47;2.53;;;3.30;99.90;;;;;;6173677;23;20013;-76
2023/12/04 11:11:12;;;;;;;6.20;2.80;;;3.30;99.90;;;;;;6175189;23;20013;-76
2023/12/04 11:13:43;;;;;;;9.13;3.63;;;3.40;99.90;;;;;;6176181;23;20017;-78
2023/12/04 11:16:17;;;;;;;6.25;2.65;;;3.40;99.90;;;;;;6174030;23;20244;-77
2023/12/04 11:18:46;;;;;;;6.28;2.30;;;3.40;99.90;;;;;;6172827;23;20020;-77
2023/12/04 11:21:12;;;;;;;7.15;3.45;;;3.40;99.90;;;;;;6174097;23;20841;-78
2023/12/04 11:23:38;;;;;;;6.32;2.58;;;3.40;99.90;;;;;;6174588;23;20009;-77
2023/12/04 11:26:05;;;;;;;5.72;2.97;;;3.30;99.90;;;;;;6173254;23;20463;-76
2023/12/04 11:28:33;;;;;;;5.90;2.85;;;3.30;99.90;;;;;;6174751;23;20589;-77
2023/12/04 11:31:00;;;;;;;7.55;2.97;;;3.40;99.90;;;;;;6172336;23;20021;-77
2023/12/04 11:33:26;;;;;;;7.13;3.08;;;3.40;99.90;;;;;;6177317;23;20016;-77
2023/12/04 11:35:52;;;;;;;7.95;3.33;;;3.40;99.90;;;;;;6174693;23;20020;-76
2023/12/04 11:41:30;;;;;;;8.27;3.45;;;3.40;99.90;;;;;;6162567;23;21475;-74
2023/12/04 11:43:56;;;;;;;7.60;2.90;;;3.50;99.90;;;;;;6173845;22;20005;-73
2023/12/04 11:46:24;;;;;;;9.52;3.67;;;3.50;99.90;;;;;;6174204;23;20091;-72
2023/12/04 11:48:55;;;;;;;7.57;3.55;;;3.50;99.90;;;;;;6172806;23;20350;-73
2023/12/04 11:51:38;;;;;;;7.18;3.97;;;3.50;99.90;;;;;;6174219;23;20020;-74
2023/12/04 11:54:07;;;;;;;5.88;3.10;;;3.70;99.90;;;;;;6172819;23;20023;-74
2023/12/04 11:56:33;;;;;;;9.73;3.50;;;3.80;99.90;;;;;;6174191;23;20024;-74
2023/12/04 11:59:06;;;;;;;8.60;3.97;;;3.80;99.90;;;;;;6172068;23;20009;-71
2023/12/04 12:01:36;;;;;;;8.10;3.15;;;3.80;99.90;;;;;;6176035;23;20017;-74
2023/12/04 12:04:05;;;;;;;9.52;3.47;;;3.80;99.90;;;;;;6174988;23;20013;-75
2023/12/04 12:06:30;;;;;;;9.32;3.95;;;3.80;99.90;;;;;;6173774;23;20462;-74
2023/12/04 12:08:56;;;;;;;6.93;3.17;;;3.80;99.90;;;;;;6174462;23;20065;-74
2023/12/04 12:11:23;;;;;;;7.75;3.45;;;3.70;99.90;;;;;;6173848;23;20028;-73
2023/12/04 12:13:49;;;;;;;7.78;3.05;;;3.70;99.90;;;;;;6172664;23;20009;-75
2023/12/04 12:16:14;;;;;;;7.80;3.80;;;3.60;99.90;;;;;;6175240;23;20117;-74
2023/12/04 12:18:41;;;;;;;7.57;3.53;;;3.70;99.90;;;;;;6173215;23;20021;-72
2023/12/04 12:21:07;;;;;;;10.45;3.97;;;3.60;99.90;;;;;;6173272;23;20075;-74
2023/12/04 12:23:33;;;;;;;7.72;3.45;;;3.60;99.90;;;;;;6175280;23;20083;-74
2023/12/04 12:25:59;;;;;;;10.10;4.32;;;3.60;99.90;;;;;;6172831;23;20083;-73
2023/12/04 12:28:25;;;;;;;9.32;3.92;;;3.50;99.90;;;;;;6172645;23;20047;-76
2023/12/04 12:30:52;;;;;;;13.10;4.07;;;3.50;99.90;;;;;;6172585;23;20021;-72
2023/12/04 12:33:20;;;;;;;9.35;4.13;;;3.50;99.90;;;;;;6174415;23;20060;-73
2023/12/04 12:35:47;;;;;;;7.63;3.47;;;3.60;99.90;;;;;;6174016;23;20013;-72
2023/12/04 12:38:12;;;;;;;7.28;3.22;;;3.50;99.90;;;;;;6175620;23;20008;-73
2023/12/04 12:40:38;;;;;;;6.53;4.07;;;3.60;99.90;;;;;;6175221;23;20048;-74
2023/12/04 12:43:08;;;;;;;8.35;4.28;;;3.50;99.90;;;;;;6173776;23;20016;-74
2023/12/04 12:45:44;;;;;;;8.03;3.27;;;3.50;99.90;;;;;;6173766;23;20016;-73
2023/12/04 12:48:14;;;;;;;11.25;4.50;;;3.60;99.90;;;;;;6173211;23;20084;-74
2023/12/04 12:50:40;;;;;;;11.45;5.13;;;3.60;99.90;;;;;;6176102;23;20017;-75